PAA1 RJAA-VHHX
Flight info
| Callsign | PAA1 |
|---|---|
| Flight time | N/A |
| Altitude | 38000 |
| Route | SAKUR5 SZE V17 CBE Y121 LABEL Y50 SUKMO/N0479F400 Y50 KOSHI A1 ELATO MAGOG13 |
| Aircraft | B742/H-SDFHIRWXY/L |
Departure
| Time | N/A |
|---|---|
| Airport | Narita International Airport (RJAA) |
Arrival
| Time | 2026-04-29 17:18 |
|---|---|
| Airport | Hong Kong International Airport Kai Tak (VHHX) |
| Time | Latitude | Longitude | Altitude | Speed | Heading |
|---|---|---|---|---|---|
| 2026-04-29 17:03 | 22.23781 | 114.43362 | 13829 ft | 293 kts | 267° |
| 2026-04-29 17:03 | 22.23685 | 114.41161 | 13325 ft | 295 kts | 267° |
| 2026-04-29 17:03 | 22.23589 | 114.38957 | 12759 ft | 300 kts | 267° |
| 2026-04-29 17:04 | 22.23491 | 114.36687 | 12180 ft | 303 kts | 266° |
| 2026-04-29 17:04 | 22.23390 | 114.34413 | 11611 ft | 305 kts | 266° |
| 2026-04-29 17:04 | 22.23282 | 114.32162 | 11048 ft | 301 kts | 266° |
| 2026-04-29 17:04 | 22.23178 | 114.29929 | 10483 ft | 298 kts | 265° |
| 2026-04-29 17:05 | 22.23079 | 114.27721 | 9922 ft | 295 kts | 265° |
| 2026-04-29 17:05 | 22.22980 | 114.25500 | 9350 ft | 292 kts | 265° |
| 2026-04-29 17:05 | 22.22883 | 114.23338 | 8888 ft | 285 kts | 265° |
| 2026-04-29 17:05 | 22.22788 | 114.21234 | 8532 ft | 277 kts | 265° |
| 2026-04-29 17:06 | 22.22695 | 114.19170 | 8191 ft | 274 kts | 265° |
| 2026-04-29 17:06 | 22.22604 | 114.17168 | 8028 ft | 267 kts | 265° |
| 2026-04-29 17:06 | 22.22513 | 114.15166 | 7993 ft | 265 kts | 265° |
| 2026-04-29 17:06 | 22.22422 | 114.13164 | 7990 ft | 267 kts | 265° |
| 2026-04-29 17:07 | 22.22331 | 114.11169 | 7984 ft | 267 kts | 265° |
| 2026-04-29 17:07 | 22.22240 | 114.09177 | 7978 ft | 267 kts | 265° |
| 2026-04-29 17:07 | 22.22147 | 114.07162 | 7981 ft | 267 kts | 265° |
| 2026-04-29 17:07 | 22.22055 | 114.05174 | 7980 ft | 266 kts | 265° |
| 2026-04-29 17:08 | 22.21945 | 114.03182 | 7983 ft | 266 kts | 263° |
| 2026-04-29 17:08 | 22.21805 | 114.01180 | 7822 ft | 272 kts | 265° |
| 2026-04-29 17:08 | 22.21754 | 113.99133 | 7349 ft | 272 kts | 275° |
| 2026-04-29 17:08 | 22.21814 | 113.97149 | 6938 ft | 260 kts | 260° |
| 2026-04-29 17:09 | 22.21657 | 113.95248 | 6572 ft | 252 kts | 269° |
| 2026-04-29 17:09 | 22.21621 | 113.93382 | 6226 ft | 244 kts | 266° |
| 2026-04-29 17:09 | 22.21563 | 113.91592 | 6055 ft | 234 kts | 266° |
| 2026-04-29 17:09 | 22.21509 | 113.89896 | 6000 ft | 221 kts | 269° |
| 2026-04-29 17:10 | 22.21875 | 113.88313 | 5762 ft | 221 kts | 302° |
| 2026-04-29 17:10 | 22.23053 | 113.87304 | 5505 ft | 221 kts | 340° |
| 2026-04-29 17:10 | 22.24568 | 113.87286 | 5256 ft | 221 kts | 18° |
| 2026-04-29 17:10 | 22.25845 | 113.88199 | 5010 ft | 218 kts | 40° |
| 2026-04-29 17:11 | 22.26949 | 113.89291 | 4787 ft | 213 kts | 41° |
| 2026-04-29 17:11 | 22.28018 | 113.90369 | 4636 ft | 204 kts | 41° |
| 2026-04-29 17:11 | 22.29039 | 113.91396 | 4602 ft | 201 kts | 41° |
| 2026-04-29 17:11 | 22.30050 | 113.92435 | 4565 ft | 202 kts | 48° |
| 2026-04-29 17:12 | 22.30896 | 113.93666 | 4427 ft | 199 kts | 56° |
| 2026-04-29 17:12 | 22.31444 | 113.95012 | 4296 ft | 198 kts | 74° |
| 2026-04-29 17:12 | 22.31755 | 113.96468 | 4102 ft | 197 kts | 78° |
| 2026-04-29 17:12 | 22.31893 | 113.97441 | 3939 ft | 196 kts | 82° |
| 2026-04-29 17:13 | 22.32036 | 113.99316 | 3724 ft | 178 kts | 85° |
| 2026-04-29 17:13 | 22.32096 | 114.00626 | 3438 ft | 172 kts | 85° |
| 2026-04-29 17:13 | 22.32157 | 114.01881 | 3161 ft | 165 kts | 84° |
| 2026-04-29 17:13 | 22.32230 | 114.03123 | 2935 ft | 164 kts | 83° |
| 2026-04-29 17:14 | 22.32309 | 114.04343 | 2735 ft | 164 kts | 83° |
| 2026-04-29 17:14 | 22.32390 | 114.05559 | 2515 ft | 164 kts | 83° |
| 2026-04-29 17:14 | 22.32468 | 114.06757 | 2324 ft | 154 kts | 82° |
| 2026-04-29 17:14 | 22.32541 | 114.07883 | 2085 ft | 147 kts | 82° |
| 2026-04-29 17:15 | 22.32611 | 114.08946 | 1882 ft | 139 kts | 81° |
| 2026-04-29 17:15 | 22.32681 | 114.09989 | 1702 ft | 137 kts | 81° |
| 2026-04-29 17:15 | 22.32747 | 114.10991 | 1537 ft | 136 kts | 81° |
| 2026-04-29 17:15 | 22.32813 | 114.12009 | 1373 ft | 134 kts | 81° |
| 2026-04-29 17:16 | 22.32880 | 114.13028 | 1193 ft | 134 kts | 81° |
| 2026-04-29 17:16 | 22.32944 | 114.14024 | 1009 ft | 134 kts | 81° |
| 2026-04-29 17:16 | 22.33009 | 114.15027 | 834 ft | 134 kts | 81° |
| 2026-04-29 17:16 | 22.33074 | 114.16039 | 647 ft | 133 kts | 81° |
| 2026-04-29 17:17 | 22.33156 | 114.17032 | 510 ft | 134 kts | 80° |
| 2026-04-29 17:17 | 22.33149 | 114.18029 | 343 ft | 136 kts | 94° |
| 2026-04-29 17:17 | 22.32725 | 114.18963 | 236 ft | 145 kts | 126° |
| 2026-04-29 17:17 | 22.32056 | 114.19769 | 51 ft | 143 kts | 129° |
| 2026-04-29 17:18 | 22.31440 | 114.20470 | 36 ft | 101 kts | 134° |
| 2026-04-29 17:18 | 22.31091 | 114.20856 | 36 ft | 47 kts | 134° |
| 2026-04-29 17:18 | 22.30953 | 114.21028 | 36 ft | 11 kts | 92° |
| 2026-04-29 17:18 | 22.30991 | 114.21085 | 36 ft | 9 kts | 359° |
| 2026-04-29 17:19 | 22.31044 | 114.21050 | 36 ft | 8 kts | 320° |
| 2026-04-29 17:19 | 22.31099 | 114.20992 | 36 ft | 12 kts | 314° |
| 2026-04-29 17:19 | 22.31165 | 114.20916 | 35 ft | 14 kts | 314° |
| 2026-04-29 17:19 | 22.31241 | 114.20830 | 35 ft | 16 kts | 315° |
| 2026-04-29 17:20 | 22.31327 | 114.20738 | 36 ft | 18 kts | 314° |
| 2026-04-29 17:20 | 22.31421 | 114.20632 | 35 ft | 20 kts | 315° |
| 2026-04-29 17:20 | 22.31525 | 114.20515 | 35 ft | 22 kts | 314° |
| 2026-04-29 17:20 | 22.31638 | 114.20390 | 35 ft | 24 kts | 313° |
| 2026-04-29 17:21 | 22.31763 | 114.20250 | 35 ft | 26 kts | 314° |
| 2026-04-29 17:21 | 22.31893 | 114.20104 | 35 ft | 27 kts | 314° |
| 2026-04-29 17:21 | 22.32021 | 114.19958 | 35 ft | 26 kts | 315° |
| 2026-04-29 17:21 | 22.32155 | 114.19817 | 35 ft | 26 kts | 315° |
| 2026-04-29 17:22 | 22.32284 | 114.19673 | 35 ft | 25 kts | 314° |
| 2026-04-29 17:22 | 22.32402 | 114.19555 | 35 ft | 23 kts | 318° |
| 2026-04-29 17:22 | 22.32504 | 114.19456 | 35 ft | 15 kts | 317° |
| 2026-04-29 17:22 | 22.32552 | 114.19424 | 35 ft | 5 kts | 348° |
| 2026-04-29 17:23 | 22.32590 | 114.19411 | 35 ft | 5 kts | 332° |
| 2026-04-29 17:23 | 22.32616 | 114.19385 | 35 ft | 4 kts | 312° |
| 2026-04-29 17:23 | 22.32638 | 114.19359 | 35 ft | 4 kts | 313° |
| 2026-04-29 17:23 | 22.32647 | 114.19348 | 35 ft | 0 kts | 313° |